Pride Of Kent — MQCJ2 — position and weather

sailwx.info

Track history (hours):
 
Tides and Currents Weather Stations Pressure Air Temp Water Temp Dewpoint Dewpoint Depression Visibility Wind Speed Wind Dir Waves Ship Positions

Pride Of Kent

Operator: P & O Ferries

Last reported at 2017-Aug-18 10:30 UTC. Time now 2017-Aug-18 10:51 UTC.
Position N 51°03' E 001°36'.

Length 180 m; draft 6 m.

Type: Passenger vessel. MMSI: 232009000.

Date/timePositionNaut miles runAvg speedWind from/ knotsBaromVisibWave heightAir tempDewpointWater temp
2017-Aug-18 10:30N 51°03' E 001°36'816.0
2017-Aug-18 10:00N 50°58' E 001°47'3 5.4
2017-Aug-18 09:30N 50°58' E 001°51'0 0.0
2017-Aug-18 09:00N 50°58' E 001°51'712.8
2017-Aug-18 08:28N 50°59' E 001°40'817.9
2017-Aug-18 08:00N 51°03' E 001°29'7 5.3
2017-Aug-18 06:41N 51°07' E 001°20'0 0.3
2017-Aug-18 06:22N 51°07' E 001°20'3 7.5
2017-Aug-18 06:01N 51°07' E 001°24'816.9
2017-Aug-18 05:30N 51°03' E 001°36'816.7
2017-Aug-18 05:00N 50°58' E 001°47'3 5.0
2017-Aug-18 04:31N 50°58' E 001°51'0 0.0
2017-Aug-18 04:00N 50°58' E 001°51'3 5.9
2017-Aug-18 03:30N 50°58' E 001°46'815.6
2017-Aug-18 03:00N 50°60' E 001°34'917.1
2017-Aug-18 02:30N 51°06' E 001°24'3 5.0
2017-Aug-18 01:52N 51°07' E 001°20'0 0.0
2017-Aug-18 01:30N 51°07' E 001°20'3 5.5
2017-Aug-18 01:00N 51°07' E 001°24'917.7
2017-Aug-18 00:30N 51°02' E 001°36'917.2
2017-Aug-18 00:01N 50°58' E 001°48'2 4.1
2017-Aug-17 23:30N 50°58' E 001°52'0 0.1
2017-Aug-17 23:00N 50°58' E 001°52'713.0
2017-Aug-17 22:30N 50°58' E 001°41'917.5
2017-Aug-17 22:00N 51°03' E 001°30'7 5.6
2017-Aug-17 20:41N 51°07' E 001°20'1 7.4
2017-Aug-17 20:30N 51°07' E 001°22'815.5
2017-Aug-17 20:01N 51°05' E 001°34'816.3
2017-Aug-17 19:31N 50°59' E 001°44'5 9.7
2017-Aug-17 19:00N 50°58' E 001°51'0 0.0
2017-Aug-17 18:26N 50°58' E 001°51'3 8.0
2017-Aug-17 18:00N 50°58' E 001°46'917.4
2017-Aug-17 17:30N 51°01' E 001°33'917.1
2017-Aug-17 17:00N 51°06' E 001°22'2 3.0
2017-Aug-17 16:25N 51°07' E 001°20'0 0.2
2017-Aug-17 15:59N 51°07' E 001°20'713.8
2017-Aug-17 15:31N 51°07' E 001°31'917.0
2017-Aug-17 15:00N 51°01' E 001°40'714.7
2017-Aug-17 14:30N 50°58' E 001°51'0 0.3
2017-Aug-17 14:00N 50°58' E 001°51'1 2.0
2017-Aug-17 13:31N 50°58' E 001°50'815.6
2017-Aug-17 13:00N 51°00' E 001°37'917.4
2017-Aug-17 12:31N 51°06' E 001°27'5 7.0
2017-Aug-17 11:51N 51°07' E 001°20'0 0.2
2017-Aug-17 11:22N 51°07' E 001°20'410.8
2017-Aug-17 11:00N 51°06' E 001°26'815.7
2017-Aug-17 10:31N 51°02' E 001°36'815.8
2017-Aug-17 10:00N 50°58' E 001°47'2 4.2
2017-Aug-17 09:28N 50°58' E 001°51'0 0.0
2017-Aug-17 09:00N 50°58' E 001°51'612.4
2017-Aug-17 08:30N 50°58' E 001°41'917.8
2017-Aug-17 08:00N 51°03' E 001°29'7 4.9
2017-Aug-17 06:32N 51°07' E 001°20'0 1.0
2017-Aug-17 06:31N 51°07' E 001°20'713.7
2017-Aug-17 06:00N 51°06' E 001°31'815.9
2017-Aug-17 05:30N 51°00' E 001°40'713.1
2017-Aug-17 05:00N 50°58' E 001°50'1 1.5
2017-Aug-17 04:31N 50°58' E 001°51'0 0.0
2017-Aug-17 04:00N 50°58' E 001°51'4 7.6
2017-Aug-17 03:30N 50°58' E 001°45'917.5
2017-Aug-17 03:01N 51°02' E 001°33'917.5
2017-Aug-17 02:30N 51°07' E 001°21'1 1.5
2017-Aug-17 01:57N 51°07' E 001°20'0 0.3
2017-Aug-17 01:20N 51°07' E 001°20'413.8
2017-Aug-17 01:01N 51°07' E 001°27'917.5
2017-Aug-17 00:31N 51°01' E 001°38'816.8
2017-Aug-17 00:00N 50°58' E 001°51'0 0.6
2017-Aug-16 23:30N 50°58' E 001°51'0 0.0
2017-Aug-16 23:00N 50°58' E 001°51'713.3
2017-Aug-16 22:30N 50°59' E 001°41'917.9
2017-Aug-16 22:01N 51°04' E 001°29'611.2
2017-Aug-16 21:26N 51°07' E 001°20'0 0.0
2017-Aug-16 20:54N 51°07' E 001°20'0 0.5
2017-Aug-16 20:31N 51°07' E 001°20'612.6
2017-Aug-16 20:00N 51°05' E 001°30'917.3
2017-Aug-16 19:30N 51°00' E 001°41'713.2
2017-Aug-16 19:01N 50°58' E 001°51'0 0.2
2017-Aug-16 18:30N 50°58' E 001°51'2 3.5
2017-Aug-16 18:00N 50°58' E 001°48'917.4
2017-Aug-16 17:30N 51°01' E 001°35'917.8
2017-Aug-16 17:00N 51°06' E 001°23'2 5.0
2017-Aug-16 16:30N 51°07' E 001°20'0 0.0
2017-Aug-16 16:00N 51°07' E 001°20'611.6
2017-Aug-16 15:30N 51°06' E 001°29'917.9
2017-Aug-16 15:00N 51°01' E 001°40'714.1
2017-Aug-16 14:31N 50°58' E 001°51'0 0.2
2017-Aug-16 14:01N 50°58' E 001°51'0 0.2
2017-Aug-16 13:31N 50°58' E 001°51'714.6
2017-Aug-16 13:00N 50°59' E 001°39'917.1
2017-Aug-16 12:30N 51°03' E 001°27'612.3
2017-Aug-16 11:59N 51°07' E 001°20'0 0.0
2017-Aug-16 11:30N 51°07' E 001°20'1 1.3
2017-Aug-16 10:58N 51°07' E 001°21'817.8
2017-Aug-16 10:30N 51°03' E 001°33'918.1
2017-Aug-16 10:00N 50°58' E 001°45'4 7.9
2017-Aug-16 09:30N 50°58' E 001°51'0 0.0
2017-Aug-16 09:00N 50°58' E 001°51'4 7.5
2017-Aug-16 08:30N 50°58' E 001°45'917.9
2017-Aug-16 08:00N 50°60' E 001°31'917.6
2017-Aug-16 07:31N 51°07' E 001°22'2 3.3
2017-Aug-16 07:00N 51°07' E 001°20'0 0.0
2017-Aug-16 06:30N 51°07' E 001°20'611.2
2017-Aug-16 06:00N 51°06' E 001°29'815.6
2017-Aug-16 05:30N 51°01' E 001°38'713.3
2017-Aug-16 05:00N 50°58' E 001°48'2 3.7
2017-Aug-16 04:30N 50°58' E 001°51'0 0.0
2017-Aug-16 04:00N 50°58' E 001°51'3 6.0
2017-Aug-16 03:30N 50°58' E 001°46'918.0
2017-Aug-16 03:00N 51°01' E 001°33'918.0
2017-Aug-16 02:31N 51°07' E 001°22'1 2.4
2017-Aug-16 01:59N 51°07' E 001°20'0 0.0
2017-Aug-16 01:25N 51°07' E 001°20'2 4.0
2017-Aug-16 01:00N 51°07' E 001°23'917.5
2017-Aug-16 00:30N 51°03' E 001°35'917.7
2017-Aug-16 00:00N 50°58' E 001°47'3 5.3
2017-Aug-15 23:30N 50°58' E 001°51'0 0.1
2017-Aug-15 23:00N 50°58' E 001°51'713.6
2017-Aug-15 22:30N 50°59' E 001°40'917.4
2017-Aug-15 22:00N 51°03' E 001°28'711.6
2017-Aug-15 21:26N 51°07' E 001°20'0 0.0
2017-Aug-15 20:48N 51°07' E 001°20'0 0.0
2017-Aug-15 20:29N 51°07' E 001°20'3 5.9
2017-Aug-15 20:01N 51°07' E 001°24'816.6
2017-Aug-15 19:30N 51°03' E 001°36'816.9
2017-Aug-15 19:00N 50°58' E 001°47'2 4.8
2017-Aug-15 18:31N 50°58' E 001°51'2 3.7
2017-Aug-15 18:00N 50°58' E 001°48'918.0
2017-Aug-15 17:30N 51°01' E 001°35'918.1
2017-Aug-15 17:01N 51°06' E 001°23'2 4.0
2017-Aug-15 16:30N 51°07' E 001°20'0 0.2
2017-Aug-15 15:54N 51°07' E 001°20'513.9
2017-Aug-15 15:30N 51°07' E 001°29'917.7
2017-Aug-15 15:00N 51°01' E 001°39'815.5
2017-Aug-15 14:30N 50°58' E 001°51'0 0.7
2017-Aug-15 14:00N 50°58' E 001°51'1 1.1
2017-Aug-15 13:31N 50°58' E 001°50'816.5
2017-Aug-15 13:00N 50°58' E 001°37'816.9
2017-Aug-15 12:30N 51°04' E 001°28'610.4
2017-Aug-15 11:55N 51°07' E 001°20'0 0.0
2017-Aug-15 11:26N 51°07' E 001°20'0 0.8
2017-Aug-15 11:00N 51°07' E 001°21'917.3
2017-Aug-15 10:31N 51°03' E 001°33'918.4
2017-Aug-15 10:01N 50°58' E 001°45'4 7.4
2017-Aug-15 09:29N 50°58' E 001°51'0 0.0
2017-Aug-15 09:00N 50°58' E 001°51'3 6.1
2017-Aug-15 08:30N 50°58' E 001°46'917.8
2017-Aug-15 08:00N 51°01' E 001°33'917.5
2017-Aug-15 07:30N 51°07' E 001°23'2 3.1
2017-Aug-15 06:58N 51°07' E 001°20'0 0.0
2017-Aug-15 06:28N 51°07' E 001°20'4 7.8
2017-Aug-15 06:01N 51°06' E 001°26'917.2
2017-Aug-15 05:30N 51°02' E 001°37'815.6
2017-Aug-15 05:01N 50°58' E 001°48'2 3.7
2017-Aug-15 04:30N 50°58' E 001°51'0 0.2
2017-Aug-15 04:01N 50°58' E 001°51'611.2
2017-Aug-15 03:30N 50°58' E 001°42'816.8
2017-Aug-15 03:00N 51°01' E 001°29'815.0
2017-Aug-15 02:30N 51°07' E 001°22'1 2.7
2017-Aug-15 02:00N 51°07' E 001°20'0 0.3
2017-Aug-15 01:30N 51°07' E 001°20'713.7
2017-Aug-15 01:01N 51°07' E 001°31'816.8
2017-Aug-15 00:31N 51°00' E 001°39'714.7
2017-Aug-15 00:01N 50°58' E 001°51'0 0.6
2017-Aug-14 23:31N 50°58' E 001°51'1 1.6
2017-Aug-14 23:01N 50°58' E 001°50'713.1
2017-Aug-14 22:30N 50°59' E 001°39'815.9
2017-Aug-14 22:00N 51°04' E 001°30'714.0
2017-Aug-14 21:30N 51°07' E 001°20'0 0.1
2017-Aug-14 21:00N 51°07' E 001°20'3 6.5
2017-Aug-14 20:30N 51°07' E 001°25'815.3
2017-Aug-14 20:00N 51°03' E 001°36'816.0
2017-Aug-14 19:31N 50°58' E 001°45'4 7.0
2017-Aug-14 19:00N 50°58' E 001°51'0 0.0
2017-Aug-14 18:30N 50°58' E 001°51'3 5.7
2017-Aug-14 18:01N 50°58' E 001°47'816.3
2017-Aug-14 17:31N 51°01' E 001°35'917.6
2017-Aug-14 17:01N 51°07' E 001°23'2 4.4
2017-Aug-14 16:29N 51°07' E 001°20'0 0.5
2017-Aug-14 15:58N 51°07' E 001°20'613.5
2017-Aug-14 15:30N 51°05' E 001°29'917.8
2017-Aug-14 15:00N 50°60' E 001°41'713.3
2017-Aug-14 14:31N 50°58' E 001°51'0 0.2
2017-Aug-14 14:00N 50°58' E 001°51'0 0.3
2017-Aug-14 13:30N 50°58' E 001°51'816.3
2017-Aug-14 13:00N 50°58' E 001°38'917.6
2017-Aug-14 12:30N 51°04' E 001°29'6 9.1
2017-Aug-14 11:50N 51°07' E 001°20'0 0.3
2017-Aug-14 11:11N 51°07' E 001°20'211.5
2017-Aug-14 11:00N 51°07' E 001°23'918.3
2017-Aug-14 10:31N 51°02' E 001°36'917.6
2017-Aug-14 10:00N 50°58' E 001°48'2 3.5
2017-Aug-14 09:30N 50°58' E 001°51'0 0.0
2017-Aug-14 09:00N 50°58' E 001°51'3 6.8
2017-Aug-14 08:31N 50°58' E 001°46'816.8
2017-Aug-14 08:00N 51°01' E 001°33'917.8
2017-Aug-14 07:30N 51°07' E 001°22'2 1.4
2017-Aug-14 06:20N 51°07' E 001°20'513.9
2017-Aug-14 06:00N 51°07' E 001°27'917.3
2017-Aug-14 05:31N 51°01' E 001°38'815.5
2017-Aug-14 05:01N 50°58' E 001°50'1 2.2
2017-Aug-14 04:31N 50°58' E 001°51'0 0.0
2017-Aug-14 04:01N 50°58' E 001°51'3 5.1
2017-Aug-14 03:30N 50°58' E 001°47'918.9
2017-Aug-14 03:01N 51°00' E 001°33'816.2
2017-Aug-14 02:31N 51°06' E 001°24'3 5.3
2017-Aug-14 02:00N 51°07' E 001°20'0 0.3
2017-Aug-14 01:30N 51°07' E 001°20'815.9
2017-Aug-14 01:00N 51°05' E 001°32'917.4
2017-Aug-14 00:31N 50°59' E 001°43'510.5
2017-Aug-14 00:00N 50°58' E 001°51'0 0.0
2017-Aug-13 23:30N 50°58' E 001°51'5 9.6
2017-Aug-13 23:00N 50°58' E 001°43'815.4
2017-Aug-13 22:31N 51°00' E 001°32'917.6
2017-Aug-13 22:01N 51°06' E 001°21'2 3.5
2017-Aug-13 21:30N 51°07' E 001°20'1 2.6
2017-Aug-13 20:59N 51°07' E 001°22'715.8
2017-Aug-13 20:30N 51°04' E 001°33'917.1
2017-Aug-13 20:00N 50°58' E 001°43'5 9.7
2017-Aug-13 19:30N 50°58' E 001°51'0 0.0
2017-Aug-13 18:58N 50°58' E 001°51'3 6.3
2017-Aug-13 18:30N 50°58' E 001°46'713.8
2017-Aug-13 18:00N 50°59' E 001°36'917.7
2017-Aug-13 17:30N 51°04' E 001°24'4 3.6
2017-Aug-13 16:23N 51°07' E 001°20'513.6
2017-Aug-13 16:00N 51°06' E 001°28'917.7
2017-Aug-13 15:31N 51°01' E 001°39'714.6
2017-Aug-13 15:00N 50°58' E 001°50'1 1.3
2017-Aug-13 14:31N 50°58' E 001°51'0 0.0
2017-Aug-13 14:00N 50°58' E 001°51'4 7.2
2017-Aug-13 13:31N 50°58' E 001°45'917.8
2017-Aug-13 13:00N 51°01' E 001°32'1017.0
2017-Aug-13 12:26N 51°07' E 001°20'0 0.2
2017-Aug-13 11:42N 51°07' E 001°20'0 0.3
2017-Aug-13 11:26N 51°07' E 001°20'613.3
2017-Aug-13 11:01N 51°05' E 001°28'918.1
2017-Aug-13 10:31N 50°60' E 001°40'714.1
2017-Aug-13 10:00N 50°58' E 001°51'0 0.1
2017-Aug-13 09:30N 50°58' E 001°51'0 0.0
2017-Aug-13 08:59N 50°58' E 001°51'611.9
2017-Aug-13 08:30N 50°58' E 001°42'916.8
2017-Aug-13 08:00N 51°03' E 001°31'8 5.2
2017-Aug-13 06:25N 51°07' E 001°20'613.9
2017-Aug-13 06:01N 51°06' E 001°29'917.1
2017-Aug-13 05:31N 51°00' E 001°39'714.8
2017-Aug-13 05:00N 50°58' E 001°51'0 0.9
2017-Aug-13 04:30N 50°58' E 001°51'1 1.3
2017-Aug-13 03:59N 50°58' E 001°50'918.3
2017-Aug-13 03:30N 50°59' E 001°36'917.6
2017-Aug-13 03:00N 51°05' E 001°25'4 7.8
2017-Aug-13 02:27N 51°07' E 001°20'0 0.2
2017-Aug-13 01:58N 51°07' E 001°20'511.7
2017-Aug-13 01:30N 51°07' E 001°29'714.2
2017-Aug-13 01:00N 51°02' E 001°37'815.7
2017-Aug-13 00:31N 50°58' E 001°48'2 4.6
2017-Aug-13 00:00N 50°58' E 001°51'0 0.0
2017-Aug-12 23:30N 50°58' E 001°51'0 0.0
2017-Aug-12 23:00N 50°58' E 001°51'611.4
2017-Aug-12 22:30N 50°58' E 001°42'917.4
2017-Aug-12 22:00N 51°03' E 001°31'815.6
2017-Aug-12 21:30N 51°07' E 001°20'0 0.0
2017-Aug-12 20:59N 51°07' E 001°20'612.5
2017-Aug-12 20:31N 51°07' E 001°30'917.5
2017-Aug-12 20:00N 51°01' E 001°40'714.5
2017-Aug-12 19:30N 50°58' E 001°51'0 0.2
2017-Aug-12 19:00N 50°58' E 001°51'1 1.0
2017-Aug-12 18:31N 50°58' E 001°50'815.9
2017-Aug-12 18:00N 50°60' E 001°38'918.2
2017-Aug-12 17:30N 51°05' E 001°26'4 5.9
2017-Aug-12 16:46N 51°07' E 001°20'0 0.4
2017-Aug-12 16:30N 51°07' E 001°20'715.0
2017-Aug-12 16:00N 51°05' E 001°32'917.1
2017-Aug-12 15:30N 50°60' E 001°42'611.6
2017-Aug-12 15:00N 50°58' E 001°51'0 0.1
2017-Aug-12 14:30N 50°58' E 001°51'0 0.0
2017-Aug-12 13:53N 50°58' E 001°51'615.3
2017-Aug-12 13:30N 50°58' E 001°42'918.2
2017-Aug-12 13:00N 51°03' E 001°29'710.9
2017-Aug-12 12:19N 51°07' E 001°20'0 0.0
2017-Aug-12 11:57N 51°07' E 001°20'0 0.2
2017-Aug-12 11:30N 51°07' E 001°20'815.6
2017-Aug-12 11:00N 51°05' E 001°32'917.7
2017-Aug-12 10:30N 50°59' E 001°42'611.1
2017-Aug-12 10:00N 50°58' E 001°51'0 0.0
2017-Aug-12 09:30N 50°58' E 001°51'1 1.1
2017-Aug-12 09:00N 50°58' E 001°50'815.1
2017-Aug-12 08:30N 50°59' E 001°38'917.8
2017-Aug-12 08:00N 51°04' E 001°27'5 3.6
2017-Aug-12 06:35N 51°07' E 001°20'1 6.8
2017-Aug-12 06:30N 51°07' E 001°21'816.7
2017-Aug-12 06:01N 51°06' E 001°34'917.3
2017-Aug-12 05:31N 50°59' E 001°43'510.5
2017-Aug-12 05:00N 50°58' E 001°51'0 0.0
2017-Aug-12 04:29N 50°58' E 001°51'5 9.8
2017-Aug-12 04:00N 50°58' E 001°44'917.4
2017-Aug-12 03:31N 51°02' E 001°31'917.7
2017-Aug-12 03:00N 51°07' E 001°20'1 0.9
2017-Aug-12 02:16N 51°07' E 001°20'1 5.2
2017-Aug-12 02:01N 51°07' E 001°22'612.6
2017-Aug-12 01:31N 51°04' E 001°31'816.3
2017-Aug-12 01:00N 50°60' E 001°42'611.7
2017-Aug-12 00:30N 50°58' E 001°51'0 0.4
2017-Aug-12 00:00N 50°58' E 001°51'816.5
2017-Aug-11 23:30N 50°59' E 001°38'917.6
2017-Aug-11 23:00N 51°03' E 001°26'5 6.0
2017-Aug-11 22:07N 51°07' E 001°20'0 0.3
2017-Aug-11 21:41N 51°07' E 001°20'1 3.3
2017-Aug-11 21:30N 51°07' E 001°21'816.9
2017-Aug-11 21:01N 51°03' E 001°33'917.8
2017-Aug-11 20:31N 50°58' E 001°45'4 8.1
2017-Aug-11 20:00N 50°58' E 001°51'0 0.0
2017-Aug-11 19:30N 50°58' E 001°51'0 0.0
2017-Aug-11 19:00N 50°58' E 001°51'4 8.2
2017-Aug-11 18:30N 50°58' E 001°45'917.3
2017-Aug-11 18:00N 51°02' E 001°33'917.8
2017-Aug-11 17:29N 51°07' E 001°20'1 1.2
2017-Aug-11 16:56N 51°07' E 001°20'0 0.2
2017-Aug-11 16:29N 51°07' E 001°20'4 8.6
2017-Aug-11 16:01N 51°06' E 001°26'816.6
2017-Aug-11 15:30N 51°02' E 001°38'815.1
2017-Aug-11 15:01N 50°58' E 001°48'2 1.7
2017-Aug-11 14:00N 50°58' E 001°51'1 2.4
2017-Aug-11 13:30N 50°58' E 001°49'918.5
2017-Aug-11 13:00N 51°01' E 001°35'917.8
2017-Aug-11 12:30N 51°06' E 001°24'3 4.6
2017-Aug-11 11:57N 51°07' E 001°20'0 0.0
2017-Aug-11 11:30N 51°07' E 001°20'3 6.3
2017-Aug-11 11:00N 51°07' E 001°25'918.1
2017-Aug-11 10:30N 51°02' E 001°37'917.4
2017-Aug-11 10:01N 50°58' E 001°50'1 1.8
2017-Aug-11 09:30N 50°58' E 001°51'0 0.0
2017-Aug-11 09:01N 50°58' E 001°51'613.0
2017-Aug-11 08:31N 50°58' E 001°41'815.8
2017-Aug-11 08:00N 51°02' E 001°30'816.3
2017-Aug-11 07:30N 51°07' E 001°20'0 0.1
2017-Aug-11 06:58N 51°07' E 001°20'0 0.0
2017-Aug-11 06:28N 51°07' E 001°20'0 0.0
2017-Aug-11 06:00N 51°07' E 001°20'0 0.0
2017-Aug-11 05:28N 51°07' E 001°20'0 0.0
2017-Aug-11 03:54N 51°07' E 001°20'0 0.0
2017-Aug-11 02:47N 51°07' E 001°20'0 0.0
2017-Aug-11 02:27N 51°07' E 001°20'4 9.8
2017-Aug-11 02:00N 51°06' E 001°26'816.9
2017-Aug-11 01:30N 51°01' E 001°37'714.8
2017-Aug-11 01:01N 50°58' E 001°48'2 3.4
2017-Aug-11 00:30N 50°58' E 001°51'0 0.0
2017-Aug-11 00:01N 50°58' E 001°51'612.3
2017-Aug-10 23:30N 50°58' E 001°41'917.9
2017-Aug-10 23:00N 51°02' E 001°28'8 5.0
2017-Aug-10 21:28N 51°07' E 001°20'510.0
2017-Aug-10 21:00N 51°05' E 001°26'917.4
2017-Aug-10 20:30N 51°00' E 001°38'816.4
2017-Aug-10 20:00N 50°58' E 001°50'0 0.8
2017-Aug-10 19:31N 50°58' E 001°51'0 0.1
2017-Aug-10 19:00N 50°58' E 001°51'510.9
2017-Aug-10 18:30N 50°58' E 001°42'816.8
2017-Aug-10 18:01N 51°03' E 001°31'816.2
2017-Aug-10 17:30N 51°07' E 001°20'0 0.2
2017-Aug-10 16:36N 51°07' E 001°20'0 0.9
2017-Aug-10 16:29N 51°07' E 001°20'714.9
2017-Aug-10 16:00N 51°05' E 001°30'917.3
2017-Aug-10 15:30N 50°60' E 001°41'612.3
2017-Aug-10 15:00N 50°58' E 001°51'0 0.0
2017-Aug-10 14:27N 50°58' E 001°51'0 0.0
2017-Aug-10 13:59N 50°58' E 001°51'511.1
2017-Aug-10 13:31N 50°58' E 001°42'918.3
2017-Aug-10 13:00N 51°03' E 001°30'8 8.3
2017-Aug-10 12:05N 51°07' E 001°20'0 0.0
2017-Aug-10 11:39N 51°07' E 001°20'0 0.1
2017-Aug-10 11:29N 51°07' E 001°20'612.7
2017-Aug-10 11:01N 51°05' E 001°29'917.9
2017-Aug-10 10:31N 50°60' E 001°40'713.7
2017-Aug-10 10:01N 50°58' E 001°51'0 0.1
2017-Aug-10 09:31N 50°58' E 001°51'4 7.0
2017-Aug-10 09:00N 50°58' E 001°45'816.1
2017-Aug-10 08:30N 51°01' E 001°34'917.3
2017-Aug-10 08:01N 51°06' E 001°22'2 2.1
2017-Aug-10 07:08N 51°07' E 001°20'0 0.7
2017-Aug-10 06:59N 51°07' E 001°20'715.6
2017-Aug-10 06:30N 51°04' E 001°31'917.5
2017-Aug-10 06:00N 50°59' E 001°42'612.0
2017-Aug-10 05:30N 50°58' E 001°51'0 0.0
2017-Aug-10 05:00N 50°58' E 001°51'3 6.0
2017-Aug-10 04:30N 50°58' E 001°46'815.1
2017-Aug-10 04:00N 50°58' E 001°34'917.3
2017-Aug-10 03:30N 51°05' E 001°25'4 4.1
2017-Aug-10 02:28N 51°07' E 001°20'2 5.1
2017-Aug-10 02:00N 51°07' E 001°24'917.4
2017-Aug-10 01:30N 51°02' E 001°35'815.9
2017-Aug-10 01:00N 50°58' E 001°46'3 6.6
2017-Aug-10 00:30N 50°58' E 001°51'0 0.0
2017-Aug-10 00:00N 50°58' E 001°51'0 0.0
2017-Aug-09 23:30N 50°58' E 001°51'510.8
2017-Aug-09 23:00N 50°58' E 001°43'917.6
2017-Aug-09 22:30N 51°01' E 001°30'816.2
2017-Aug-09 22:00N 51°07' E 001°21'1 1.1
2017-Aug-09 21:05N 51°07' E 001°20'0 1.3
2017-Aug-09 20:58N 51°07' E 001°20'714.2
2017-Aug-09 20:31N 51°04' E 001°29'918.0
2017-Aug-09 20:01N 50°60' E 001°42'611.9
2017-Aug-09 19:30N 50°58' E 001°51'0 0.2
2017-Aug-09 19:00N 50°58' E 001°51'0 0.1
2017-Aug-09 18:30N 50°58' E 001°51'612.5
2017-Aug-09 18:00N 50°58' E 001°41'816.6
2017-Aug-09 17:30N 51°03' E 001°30'8 5.4
2017-Aug-09 16:05N 51°07' E 001°20'0 4.0
2017-Aug-09 16:00N 51°07' E 001°21'816.3
2017-Aug-09 15:31N 51°05' E 001°33'917.2
2017-Aug-09 15:00N 50°59' E 001°43'5 7.6
2017-Aug-09 14:19N 50°58' E 001°51'0 0.0
2017-Aug-09 13:55N 50°58' E 001°51'3 7.2
2017-Aug-09 13:30N 50°58' E 001°46'1018.8
2017-Aug-09 12:58N 51°03' E 001°32'9 6.4
2017-Aug-09 11:36N 51°07' E 001°20'0 1.2
2017-Aug-09 11:30N 51°07' E 001°20'815.1
2017-Aug-09 11:00N 51°05' E 001°31'917.4
2017-Aug-09 10:30N 50°59' E 001°42'611.4
2017-Aug-09 10:00N 50°58' E 001°51'0 0.0
2017-Aug-09 09:30N 50°58' E 001°51'0 0.0
2017-Aug-09 09:00N 50°58' E 001°51'510.0
2017-Aug-09 08:31N 50°58' E 001°43'816.7
2017-Aug-09 08:00N 51°02' E 001°32'916.9
2017-Aug-09 07:30N 51°07' E 001°21'0 0.3
2017-Aug-09 06:34N 51°07' E 001°20'0 0.1
2017-Aug-09 06:20N 51°07' E 001°20'3 9.9
2017-Aug-09 06:00N 51°07' E 001°25'917.7
2017-Aug-09 05:30N 51°02' E 001°37'917.0
2017-Aug-09 05:00N 50°58' E 001°49'1 2.5
2017-Aug-09 04:30N 50°58' E 001°51'0 0.0
2017-Aug-09 04:00N 50°58' E 001°51'2 3.9
2017-Aug-09 03:31N 50°58' E 001°48'816.2
2017-Aug-09 03:00N 51°01' E 001°36'816.2
2017-Aug-09 02:31N 51°06' E 001°26'4 6.7
2017-Aug-09 01:56N 51°07' E 001°20'0 0.0
2017-Aug-09 01:22N 51°07' E 001°20'3 8.0
2017-Aug-09 01:00N 51°07' E 001°25'714.7
2017-Aug-09 00:30N 51°04' E 001°36'816.5
2017-Aug-09 00:00N 50°58' E 001°45'4 7.9
2017-Aug-08 23:29N 50°58' E 001°51'0 0.0
2017-Aug-08 23:00N 50°58' E 001°51'5 9.3
2017-Aug-08 22:31N 50°58' E 001°44'917.6
2017-Aug-08 22:00N 51°01' E 001°31'917.1
2017-Aug-08 21:31N 51°07' E 001°21'1 0.8
2017-Aug-08 20:47N 51°07' E 001°20'2 8.7
2017-Aug-08 20:30N 51°07' E 001°24'815.1
2017-Aug-08 20:00N 51°02' E 001°34'713.2
2017-Aug-08 19:31N 50°59' E 001°42'510.9
2017-Aug-08 19:00N 50°58' E 001°51'0 0.0
2017-Aug-08 18:30N 50°58' E 001°51'4 7.5
2017-Aug-08 18:01N 50°58' E 001°45'815.9
2017-Aug-08 17:30N 51°01' E 001°33'816.2
2017-Aug-08 17:00N 51°07' E 001°24'3 2.3
2017-Aug-08 15:54N 51°07' E 001°20'614.8
2017-Aug-08 15:30N 51°06' E 001°29'917.5
2017-Aug-08 15:01N 51°01' E 001°40'714.3
2017-Aug-08 14:31N 50°58' E 001°51'0 0.4
2017-Aug-08 14:00N 50°58' E 001°51'1 2.6
2017-Aug-08 13:31N 50°58' E 001°49'918.3
2017-Aug-08 13:00N 51°01' E 001°35'918.4
2017-Aug-08 12:30N 51°06' E 001°23'2 3.1
2017-Aug-08 11:46N 51°07' E 001°20'1 4.6
2017-Aug-08 11:30N 51°07' E 001°22'816.7
2017-Aug-08 11:01N 51°03' E 001°33'817.0
2017-Aug-08 10:31N 50°58' E 001°45'  
Track history (hours):
 
Tides and Currents Weather Stations Pressure Air Temp Water Temp Dewpoint Dewpoint Depression Visibility Wind Speed Wind Dir Waves Ship Positions

Pride Of Kent

Operator: P & O Ferries

Last reported at 2017-Aug-18 10:30 UTC. Time now 2017-Aug-18 10:51 UTC.
Position N 51°03' E 001°36'.

Length 180 m; draft 6 m.

Type: Passenger vessel. MMSI: 232009000.

Date/timePositionNaut miles runAvg speedWind from/ knotsBaromVisibWave heightAir tempDewpointWater temp
2017-Aug-18 10:30N 51°03' E 001°36'816.0
2017-Aug-18 10:00N 50°58' E 001°47'3 5.4
2017-Aug-18 09:30N 50°58' E 001°51'0 0.0
2017-Aug-18 09:00N 50°58' E 001°51'712.8
2017-Aug-18 08:28N 50°59' E 001°40'817.9
2017-Aug-18 08:00N 51°03' E 001°29'7 5.3
2017-Aug-18 06:41N 51°07' E 001°20'0 0.3
2017-Aug-18 06:22N 51°07' E 001°20'3 7.5
2017-Aug-18 06:01N 51°07' E 001°24'816.9
2017-Aug-18 05:30N 51°03' E 001°36'816.7
2017-Aug-18 05:00N 50°58' E 001°47'3 5.0
2017-Aug-18 04:31N 50°58' E 001°51'0 0.0
2017-Aug-18 04:00N 50°58' E 001°51'3 5.9
2017-Aug-18 03:30N 50°58' E 001°46'815.6
2017-Aug-18 03:00N 50°60' E 001°34'917.1
2017-Aug-18 02:30N 51°06' E 001°24'3 5.0
2017-Aug-18 01:52N 51°07' E 001°20'0 0.0
2017-Aug-18 01:30N 51°07' E 001°20'3 5.5
2017-Aug-18 01:00N 51°07' E 001°24'917.7
2017-Aug-18 00:30N 51°02' E 001°36'917.2
2017-Aug-18 00:01N 50°58' E 001°48'2 4.1
2017-Aug-17 23:30N 50°58' E 001°52'0 0.1
2017-Aug-17 23:00N 50°58' E 001°52'713.0
2017-Aug-17 22:30N 50°58' E 001°41'917.5
2017-Aug-17 22:00N 51°03' E 001°30'7 5.6
2017-Aug-17 20:41N 51°07' E 001°20'1 7.4
2017-Aug-17 20:30N 51°07' E 001°22'815.5
2017-Aug-17 20:01N 51°05' E 001°34'816.3
2017-Aug-17 19:31N 50°59' E 001°44'5 9.7
2017-Aug-17 19:00N 50°58' E 001°51'0 0.0
2017-Aug-17 18:26N 50°58' E 001°51'3 8.0
2017-Aug-17 18:00N 50°58' E 001°46'917.4
2017-Aug-17 17:30N 51°01' E 001°33'917.1
2017-Aug-17 17:00N 51°06' E 001°22'2 3.0
2017-Aug-17 16:25N 51°07' E 001°20'0 0.2
2017-Aug-17 15:59N 51°07' E 001°20'713.8
2017-Aug-17 15:31N 51°07' E 001°31'917.0
2017-Aug-17 15:00N 51°01' E 001°40'714.7
2017-Aug-17 14:30N 50°58' E 001°51'0 0.3
2017-Aug-17 14:00N 50°58' E 001°51'1 2.0
2017-Aug-17 13:31N 50°58' E 001°50'815.6
2017-Aug-17 13:00N 51°00' E 001°37'917.4
2017-Aug-17 12:31N 51°06' E 001°27'5 7.0
2017-Aug-17 11:51N 51°07' E 001°20'0 0.2
2017-Aug-17 11:22N 51°07' E 001°20'410.8
2017-Aug-17 11:00N 51°06' E 001°26'815.7
2017-Aug-17 10:31N 51°02' E 001°36'815.8
2017-Aug-17 10:00N 50°58' E 001°47'2 4.2
2017-Aug-17 09:28N 50°58' E 001°51'0 0.0
2017-Aug-17 09:00N 50°58' E 001°51'612.4
2017-Aug-17 08:30N 50°58' E 001°41'917.8
2017-Aug-17 08:00N 51°03' E 001°29'7 4.9
2017-Aug-17 06:32N 51°07' E 001°20'0 1.0
2017-Aug-17 06:31N 51°07' E 001°20'713.7
2017-Aug-17 06:00N 51°06' E 001°31'815.9
2017-Aug-17 05:30N 51°00' E 001°40'713.1
2017-Aug-17 05:00N 50°58' E 001°50'1 1.5
2017-Aug-17 04:31N 50°58' E 001°51'0 0.0
2017-Aug-17 04:00N 50°58' E 001°51'4 7.6
2017-Aug-17 03:30N 50°58' E 001°45'917.5
2017-Aug-17 03:01N 51°02' E 001°33'917.5
2017-Aug-17 02:30N 51°07' E 001°21'1 1.5
2017-Aug-17 01:57N 51°07' E 001°20'0 0.3
2017-Aug-17 01:20N 51°07' E 001°20'413.8
2017-Aug-17 01:01N 51°07' E 001°27'917.5
2017-Aug-17 00:31N 51°01' E 001°38'816.8
2017-Aug-17 00:00N 50°58' E 001°51'0 0.6
2017-Aug-16 23:30N 50°58' E 001°51'0 0.0
2017-Aug-16 23:00N 50°58' E 001°51'713.3
2017-Aug-16 22:30N 50°59' E 001°41'917.9
2017-Aug-16 22:01N 51°04' E 001°29'611.2
2017-Aug-16 21:26N 51°07' E 001°20'0 0.0
2017-Aug-16 20:54N 51°07' E 001°20'0 0.5
2017-Aug-16 20:31N 51°07' E 001°20'612.6
2017-Aug-16 20:00N 51°05' E 001°30'917.3
2017-Aug-16 19:30N 51°00' E 001°41'713.2
2017-Aug-16 19:01N 50°58' E 001°51'0 0.2
2017-Aug-16 18:30N 50°58' E 001°51'2 3.5
2017-Aug-16 18:00N 50°58' E 001°48'917.4
2017-Aug-16 17:30N 51°01' E 001°35'917.8
2017-Aug-16 17:00N 51°06' E 001°23'2 5.0
2017-Aug-16 16:30N 51°07' E 001°20'0 0.0
2017-Aug-16 16:00N 51°07' E 001°20'611.6
2017-Aug-16 15:30N 51°06' E 001°29'917.9
2017-Aug-16 15:00N 51°01' E 001°40'714.1
2017-Aug-16 14:31N 50°58' E 001°51'0 0.2
2017-Aug-16 14:01N 50°58' E 001°51'0 0.2
2017-Aug-16 13:31N 50°58' E 001°51'714.6
2017-Aug-16 13:00N 50°59' E 001°39'917.1
2017-Aug-16 12:30N 51°03' E 001°27'612.3
2017-Aug-16 11:59N 51°07' E 001°20'0 0.0
2017-Aug-16 11:30N 51°07' E 001°20'1 1.3
2017-Aug-16 10:58N 51°07' E 001°21'817.8
2017-Aug-16 10:30N 51°03' E 001°33'918.1
2017-Aug-16 10:00N 50°58' E 001°45'4 7.9
2017-Aug-16 09:30N 50°58' E 001°51'0 0.0
2017-Aug-16 09:00N 50°58' E 001°51'4 7.5
2017-Aug-16 08:30N 50°58' E 001°45'917.9
2017-Aug-16 08:00N 50°60' E 001°31'917.6
2017-Aug-16 07:31N 51°07' E 001°22'2 3.3
2017-Aug-16 07:00N 51°07' E 001°20'0 0.0
2017-Aug-16 06:30N 51°07' E 001°20'611.2
2017-Aug-16 06:00N 51°06' E 001°29'815.6
2017-Aug-16 05:30N 51°01' E 001°38'713.3
2017-Aug-16 05:00N 50°58' E 001°48'2 3.7
2017-Aug-16 04:30N 50°58' E 001°51'0 0.0
2017-Aug-16 04:00N 50°58' E 001°51'3 6.0
2017-Aug-16 03:30N 50°58' E 001°46'918.0
2017-Aug-16 03:00N 51°01' E 001°33'918.0
2017-Aug-16 02:31N 51°07' E 001°22'1 2.4
2017-Aug-16 01:59N 51°07' E 001°20'0 0.0
2017-Aug-16 01:25N 51°07' E 001°20'2 4.0
2017-Aug-16 01:00N 51°07' E 001°23'917.5
2017-Aug-16 00:30N 51°03' E 001°35'917.7
2017-Aug-16 00:00N 50°58' E 001°47'3 5.3
2017-Aug-15 23:30N 50°58' E 001°51'0 0.1
2017-Aug-15 23:00N 50°58' E 001°51'713.6
2017-Aug-15 22:30N 50°59' E 001°40'917.4
2017-Aug-15 22:00N 51°03' E 001°28'711.6
2017-Aug-15 21:26N 51°07' E 001°20'0 0.0
2017-Aug-15 20:48N 51°07' E 001°20'0 0.0
2017-Aug-15 20:29N 51°07' E 001°20'3 5.9
2017-Aug-15 20:01N 51°07' E 001°24'816.6
2017-Aug-15 19:30N 51°03' E 001°36'816.9
2017-Aug-15 19:00N 50°58' E 001°47'2 4.8
2017-Aug-15 18:31N 50°58' E 001°51'2 3.7
2017-Aug-15 18:00N 50°58' E 001°48'918.0
2017-Aug-15 17:30N 51°01' E 001°35'918.1
2017-Aug-15 17:01N 51°06' E 001°23'2 4.0
2017-Aug-15 16:30N 51°07' E 001°20'0 0.2
2017-Aug-15 15:54N 51°07' E 001°20'513.9
2017-Aug-15 15:30N 51°07' E 001°29'917.7
2017-Aug-15 15:00N 51°01' E 001°39'815.5
2017-Aug-15 14:30N 50°58' E 001°51'0 0.7
2017-Aug-15 14:00N 50°58' E 001°51'1 1.1
2017-Aug-15 13:31N 50°58' E 001°50'816.5
2017-Aug-15 13:00N 50°58' E 001°37'816.9
2017-Aug-15 12:30N 51°04' E 001°28'610.4
2017-Aug-15 11:55N 51°07' E 001°20'0 0.0
2017-Aug-15 11:26N 51°07' E 001°20'0 0.8
2017-Aug-15 11:00N 51°07' E 001°21'917.3
2017-Aug-15 10:31N 51°03' E 001°33'918.4
2017-Aug-15 10:01N 50°58' E 001°45'4 7.4
2017-Aug-15 09:29N 50°58' E 001°51'0 0.0
2017-Aug-15 09:00N 50°58' E 001°51'3 6.1
2017-Aug-15 08:30N 50°58' E 001°46'917.8
2017-Aug-15 08:00N 51°01' E 001°33'917.5
2017-Aug-15 07:30N 51°07' E 001°23'2 3.1
2017-Aug-15 06:58N 51°07' E 001°20'0 0.0
2017-Aug-15 06:28N 51°07' E 001°20'4 7.8
2017-Aug-15 06:01N 51°06' E 001°26'917.2
2017-Aug-15 05:30N 51°02' E 001°37'815.6
2017-Aug-15 05:01N 50°58' E 001°48'2 3.7
2017-Aug-15 04:30N 50°58' E 001°51'0 0.2
2017-Aug-15 04:01N 50°58' E 001°51'611.2
2017-Aug-15 03:30N 50°58' E 001°42'816.8
2017-Aug-15 03:00N 51°01' E 001°29'815.0
2017-Aug-15 02:30N 51°07' E 001°22'1 2.7
2017-Aug-15 02:00N 51°07' E 001°20'0 0.3
2017-Aug-15 01:30N 51°07' E 001°20'713.7
2017-Aug-15 01:01N 51°07' E 001°31'816.8
2017-Aug-15 00:31N 51°00' E 001°39'714.7
2017-Aug-15 00:01N 50°58' E 001°51'0 0.6
2017-Aug-14 23:31N 50°58' E 001°51'1 1.6
2017-Aug-14 23:01N 50°58' E 001°50'713.1
2017-Aug-14 22:30N 50°59' E 001°39'815.9
2017-Aug-14 22:00N 51°04' E 001°30'714.0
2017-Aug-14 21:30N 51°07' E 001°20'0 0.1
2017-Aug-14 21:00N 51°07' E 001°20'3 6.5
2017-Aug-14 20:30N 51°07' E 001°25'815.3
2017-Aug-14 20:00N 51°03' E 001°36'816.0
2017-Aug-14 19:31N 50°58' E 001°45'4 7.0
2017-Aug-14 19:00N 50°58' E 001°51'0 0.0
2017-Aug-14 18:30N 50°58' E 001°51'3 5.7
2017-Aug-14 18:01N 50°58' E 001°47'816.3
2017-Aug-14 17:31N 51°01' E 001°35'917.6
2017-Aug-14 17:01N 51°07' E 001°23'2 4.4
2017-Aug-14 16:29N 51°07' E 001°20'0 0.5
2017-Aug-14 15:58N 51°07' E 001°20'613.5
2017-Aug-14 15:30N 51°05' E 001°29'917.8
2017-Aug-14 15:00N 50°60' E 001°41'713.3
2017-Aug-14 14:31N 50°58' E 001°51'0 0.2
2017-Aug-14 14:00N 50°58' E 001°51'0 0.3
2017-Aug-14 13:30N 50°58' E 001°51'816.3
2017-Aug-14 13:00N 50°58' E 001°38'917.6
2017-Aug-14 12:30N 51°04' E 001°29'6 9.1
2017-Aug-14 11:50N 51°07' E 001°20'0 0.3
2017-Aug-14 11:11N 51°07' E 001°20'211.5
2017-Aug-14 11:00N 51°07' E 001°23'918.3
2017-Aug-14 10:31N 51°02' E 001°36'917.6
2017-Aug-14 10:00N 50°58' E 001°48'2 3.5
2017-Aug-14 09:30N 50°58' E 001°51'0 0.0
2017-Aug-14 09:00N 50°58' E 001°51'3 6.8
2017-Aug-14 08:31N 50°58' E 001°46'816.8
2017-Aug-14 08:00N 51°01' E 001°33'917.8
2017-Aug-14 07:30N 51°07' E 001°22'2 1.4
2017-Aug-14 06:20N 51°07' E 001°20'513.9
2017-Aug-14 06:00N 51°07' E 001°27'917.3
2017-Aug-14 05:31N 51°01' E 001°38'815.5
2017-Aug-14 05:01N 50°58' E 001°50'1 2.2
2017-Aug-14 04:31N 50°58' E 001°51'0 0.0
2017-Aug-14 04:01N 50°58' E 001°51'3 5.1
2017-Aug-14 03:30N 50°58' E 001°47'918.9
2017-Aug-14 03:01N 51°00' E 001°33'816.2
2017-Aug-14 02:31N 51°06' E 001°24'3 5.3
2017-Aug-14 02:00N 51°07' E 001°20'0 0.3
2017-Aug-14 01:30N 51°07' E 001°20'815.9
2017-Aug-14 01:00N 51°05' E 001°32'917.4
2017-Aug-14 00:31N 50°59' E 001°43'510.5
2017-Aug-14 00:00N 50°58' E 001°51'0 0.0
2017-Aug-13 23:30N 50°58' E 001°51'5 9.6
2017-Aug-13 23:00N 50°58' E 001°43'815.4
2017-Aug-13 22:31N 51°00' E 001°32'917.6
2017-Aug-13 22:01N 51°06' E 001°21'2 3.5
2017-Aug-13 21:30N 51°07' E 001°20'1 2.6
2017-Aug-13 20:59N 51°07' E 001°22'715.8
2017-Aug-13 20:30N 51°04' E 001°33'917.1
2017-Aug-13 20:00N 50°58' E 001°43'5 9.7
2017-Aug-13 19:30N 50°58' E 001°51'0 0.0
2017-Aug-13 18:58N 50°58' E 001°51'3 6.3
2017-Aug-13 18:30N 50°58' E 001°46'713.8
2017-Aug-13 18:00N 50°59' E 001°36'917.7
2017-Aug-13 17:30N 51°04' E 001°24'4 3.6
2017-Aug-13 16:23N 51°07' E 001°20'513.6
2017-Aug-13 16:00N 51°06' E 001°28'917.7
2017-Aug-13 15:31N 51°01' E 001°39'714.6
2017-Aug-13 15:00N 50°58' E 001°50'1 1.3
2017-Aug-13 14:31N 50°58' E 001°51'0 0.0
2017-Aug-13 14:00N 50°58' E 001°51'4 7.2
2017-Aug-13 13:31N 50°58' E 001°45'917.8
2017-Aug-13 13:00N 51°01' E 001°32'1017.0
2017-Aug-13 12:26N 51°07' E 001°20'0 0.2
2017-Aug-13 11:42N 51°07' E 001°20'0 0.3
2017-Aug-13 11:26N 51°07' E 001°20'613.3
2017-Aug-13 11:01N 51°05' E 001°28'918.1
2017-Aug-13 10:31N 50°60' E 001°40'714.1
2017-Aug-13 10:00N 50°58' E 001°51'0 0.1
2017-Aug-13 09:30N 50°58' E 001°51'0 0.0
2017-Aug-13 08:59N 50°58' E 001°51'611.9
2017-Aug-13 08:30N 50°58' E 001°42'916.8
2017-Aug-13 08:00N 51°03' E 001°31'8 5.2
2017-Aug-13 06:25N 51°07' E 001°20'613.9
2017-Aug-13 06:01N 51°06' E 001°29'917.1
2017-Aug-13 05:31N 51°00' E 001°39'714.8
2017-Aug-13 05:00N 50°58' E 001°51'0 0.9
2017-Aug-13 04:30N 50°58' E 001°51'1 1.3
2017-Aug-13 03:59N 50°58' E 001°50'918.3
2017-Aug-13 03:30N 50°59' E 001°36'917.6
2017-Aug-13 03:00N 51°05' E 001°25'4 7.8
2017-Aug-13 02:27N 51°07' E 001°20'0 0.2
2017-Aug-13 01:58N 51°07' E 001°20'511.7
2017-Aug-13 01:30N 51°07' E 001°29'714.2
2017-Aug-13 01:00N 51°02' E 001°37'815.7
2017-Aug-13 00:31N 50°58' E 001°48'2 4.6
2017-Aug-13 00:00N 50°58' E 001°51'0 0.0
2017-Aug-12 23:30N 50°58' E 001°51'0 0.0
2017-Aug-12 23:00N 50°58' E 001°51'611.4
2017-Aug-12 22:30N 50°58' E 001°42'917.4
2017-Aug-12 22:00N 51°03' E 001°31'815.6
2017-Aug-12 21:30N 51°07' E 001°20'0 0.0
2017-Aug-12 20:59N 51°07' E 001°20'612.5
2017-Aug-12 20:31N 51°07' E 001°30'917.5
2017-Aug-12 20:00N 51°01' E 001°40'714.5
2017-Aug-12 19:30N 50°58' E 001°51'0 0.2
2017-Aug-12 19:00N 50°58' E 001°51'1 1.0
2017-Aug-12 18:31N 50°58' E 001°50'815.9
2017-Aug-12 18:00N 50°60' E 001°38'918.2
2017-Aug-12 17:30N 51°05' E 001°26'4 5.9
2017-Aug-12 16:46N 51°07' E 001°20'0 0.4
2017-Aug-12 16:30N 51°07' E 001°20'715.0
2017-Aug-12 16:00N 51°05' E 001°32'917.1
2017-Aug-12 15:30N 50°60' E 001°42'611.6
2017-Aug-12 15:00N 50°58' E 001°51'0 0.1
2017-Aug-12 14:30N 50°58' E 001°51'0 0.0
2017-Aug-12 13:53N 50°58' E 001°51'615.3
2017-Aug-12 13:30N 50°58' E 001°42'918.2
2017-Aug-12 13:00N 51°03' E 001°29'710.9
2017-Aug-12 12:19N 51°07' E 001°20'0 0.0
2017-Aug-12 11:57N 51°07' E 001°20'0 0.2
2017-Aug-12 11:30N 51°07' E 001°20'815.6
2017-Aug-12 11:00N 51°05' E 001°32'917.7
2017-Aug-12 10:30N 50°59' E 001°42'611.1
2017-Aug-12 10:00N 50°58' E 001°51'0 0.0
2017-Aug-12 09:30N 50°58' E 001°51'1 1.1
2017-Aug-12 09:00N 50°58' E 001°50'815.1
2017-Aug-12 08:30N 50°59' E 001°38'917.8
2017-Aug-12 08:00N 51°04' E 001°27'5 3.6
2017-Aug-12 06:35N 51°07' E 001°20'1 6.8
2017-Aug-12 06:30N 51°07' E 001°21'816.7
2017-Aug-12 06:01N 51°06' E 001°34'917.3
2017-Aug-12 05:31N 50°59' E 001°43'510.5
2017-Aug-12 05:00N 50°58' E 001°51'0 0.0
2017-Aug-12 04:29N 50°58' E 001°51'5 9.8
2017-Aug-12 04:00N 50°58' E 001°44'917.4
2017-Aug-12 03:31N 51°02' E 001°31'917.7
2017-Aug-12 03:00N 51°07' E 001°20'1 0.9
2017-Aug-12 02:16N 51°07' E 001°20'1 5.2
2017-Aug-12 02:01N 51°07' E 001°22'612.6
2017-Aug-12 01:31N 51°04' E 001°31'816.3
2017-Aug-12 01:00N 50°60' E 001°42'611.7
2017-Aug-12 00:30N 50°58' E 001°51'0 0.4
2017-Aug-12 00:00N 50°58' E 001°51'816.5
2017-Aug-11 23:30N 50°59' E 001°38'917.6
2017-Aug-11 23:00N 51°03' E 001°26'5 6.0
2017-Aug-11 22:07N 51°07' E 001°20'0 0.3
2017-Aug-11 21:41N 51°07' E 001°20'1 3.3
2017-Aug-11 21:30N 51°07' E 001°21'816.9
2017-Aug-11 21:01N 51°03' E 001°33'917.8
2017-Aug-11 20:31N 50°58' E 001°45'4 8.1
2017-Aug-11 20:00N 50°58' E 001°51'0 0.0
2017-Aug-11 19:30N 50°58' E 001°51'0 0.0
2017-Aug-11 19:00N 50°58' E 001°51'4 8.2
2017-Aug-11 18:30N 50°58' E 001°45'917.3
2017-Aug-11 18:00N 51°02' E 001°33'917.8
2017-Aug-11 17:29N 51°07' E 001°20'1 1.2
2017-Aug-11 16:56N 51°07' E 001°20'0 0.2
2017-Aug-11 16:29N 51°07' E 001°20'4 8.6
2017-Aug-11 16:01N 51°06' E 001°26'816.6
2017-Aug-11 15:30N 51°02' E 001°38'815.1
2017-Aug-11 15:01N 50°58' E 001°48'2 1.7
2017-Aug-11 14:00N 50°58' E 001°51'1 2.4
2017-Aug-11 13:30N 50°58' E 001°49'918.5
2017-Aug-11 13:00N 51°01' E 001°35'917.8
2017-Aug-11 12:30N 51°06' E 001°24'3 4.6
2017-Aug-11 11:57N 51°07' E 001°20'0 0.0
2017-Aug-11 11:30N 51°07' E 001°20'3 6.3
2017-Aug-11 11:00N 51°07' E 001°25'918.1
2017-Aug-11 10:30N 51°02' E 001°37'917.4
2017-Aug-11 10:01N 50°58' E 001°50'1 1.8
2017-Aug-11 09:30N 50°58' E 001°51'0 0.0
2017-Aug-11 09:01N 50°58' E 001°51'613.0
2017-Aug-11 08:31N 50°58' E 001°41'815.8
2017-Aug-11 08:00N 51°02' E 001°30'816.3
2017-Aug-11 07:30N 51°07' E 001°20'0 0.1
2017-Aug-11 06:58N 51°07' E 001°20'0 0.0
2017-Aug-11 06:28N 51°07' E 001°20'0 0.0
2017-Aug-11 06:00N 51°07' E 001°20'0 0.0
2017-Aug-11 05:28N 51°07' E 001°20'0 0.0
2017-Aug-11 03:54N 51°07' E 001°20'0 0.0
2017-Aug-11 02:47N 51°07' E 001°20'0 0.0
2017-Aug-11 02:27N 51°07' E 001°20'4 9.8
2017-Aug-11 02:00N 51°06' E 001°26'816.9
2017-Aug-11 01:30N 51°01' E 001°37'714.8
2017-Aug-11 01:01N 50°58' E 001°48'2 3.4
2017-Aug-11 00:30N 50°58' E 001°51'0 0.0
2017-Aug-11 00:01N 50°58' E 001°51'612.3
2017-Aug-10 23:30N 50°58' E 001°41'917.9
2017-Aug-10 23:00N 51°02' E 001°28'8 5.0
2017-Aug-10 21:28N 51°07' E 001°20'510.0
2017-Aug-10 21:00N 51°05' E 001°26'917.4
2017-Aug-10 20:30N 51°00' E 001°38'816.4
2017-Aug-10 20:00N 50°58' E 001°50'0 0.8
2017-Aug-10 19:31N 50°58' E 001°51'0 0.1
2017-Aug-10 19:00N 50°58' E 001°51'510.9
2017-Aug-10 18:30N 50°58' E 001°42'816.8
2017-Aug-10 18:01N 51°03' E 001°31'816.2
2017-Aug-10 17:30N 51°07' E 001°20'0 0.2
2017-Aug-10 16:36N 51°07' E 001°20'0 0.9
2017-Aug-10 16:29N 51°07' E 001°20'714.9
2017-Aug-10 16:00N 51°05' E 001°30'917.3
2017-Aug-10 15:30N 50°60' E 001°41'612.3
2017-Aug-10 15:00N 50°58' E 001°51'0 0.0
2017-Aug-10 14:27N 50°58' E 001°51'0 0.0
2017-Aug-10 13:59N 50°58' E 001°51'511.1
2017-Aug-10 13:31N 50°58' E 001°42'918.3
2017-Aug-10 13:00N 51°03' E 001°30'8 8.3
2017-Aug-10 12:05N 51°07' E 001°20'0 0.0
2017-Aug-10 11:39N 51°07' E 001°20'0 0.1
2017-Aug-10 11:29N 51°07' E 001°20'612.7
2017-Aug-10 11:01N 51°05' E 001°29'917.9
2017-Aug-10 10:31N 50°60' E 001°40'713.7
2017-Aug-10 10:01N 50°58' E 001°51'0 0.1
2017-Aug-10 09:31N 50°58' E 001°51'4 7.0
2017-Aug-10 09:00N 50°58' E 001°45'816.1
2017-Aug-10 08:30N 51°01' E 001°34'917.3
2017-Aug-10 08:01N 51°06' E 001°22'2 2.1
2017-Aug-10 07:08N 51°07' E 001°20'0 0.7
2017-Aug-10 06:59N 51°07' E 001°20'715.6
2017-Aug-10 06:30N 51°04' E 001°31'917.5
2017-Aug-10 06:00N 50°59' E 001°42'612.0
2017-Aug-10 05:30N 50°58' E 001°51'0 0.0
2017-Aug-10 05:00N 50°58' E 001°51'3 6.0
2017-Aug-10 04:30N 50°58' E 001°46'815.1
2017-Aug-10 04:00N 50°58' E 001°34'917.3
2017-Aug-10 03:30N 51°05' E 001°25'4 4.1
2017-Aug-10 02:28N 51°07' E 001°20'2 5.1
2017-Aug-10 02:00N 51°07' E 001°24'917.4
2017-Aug-10 01:30N 51°02' E 001°35'815.9
2017-Aug-10 01:00N 50°58' E 001°46'3 6.6
2017-Aug-10 00:30N 50°58' E 001°51'0 0.0
2017-Aug-10 00:00N 50°58' E 001°51'0 0.0
2017-Aug-09 23:30N 50°58' E 001°51'510.8
2017-Aug-09 23:00N 50°58' E 001°43'917.6
2017-Aug-09 22:30N 51°01' E 001°30'816.2
2017-Aug-09 22:00N 51°07' E 001°21'1 1.1
2017-Aug-09 21:05N 51°07' E 001°20'0 1.3
2017-Aug-09 20:58N 51°07' E 001°20'714.2
2017-Aug-09 20:31N 51°04' E 001°29'918.0
2017-Aug-09 20:01N 50°60' E 001°42'611.9
2017-Aug-09 19:30N 50°58' E 001°51'0 0.2
2017-Aug-09 19:00N 50°58' E 001°51'0 0.1
2017-Aug-09 18:30N 50°58' E 001°51'612.5
2017-Aug-09 18:00N 50°58' E 001°41'816.6
2017-Aug-09 17:30N 51°03' E 001°30'8 5.4
2017-Aug-09 16:05N 51°07' E 001°20'0 4.0
2017-Aug-09 16:00N 51°07' E 001°21'816.3
2017-Aug-09 15:31N 51°05' E 001°33'917.2
2017-Aug-09 15:00N 50°59' E 001°43'5 7.6
2017-Aug-09 14:19N 50°58' E 001°51'0 0.0
2017-Aug-09 13:55N 50°58' E 001°51'3 7.2
2017-Aug-09 13:30N 50°58' E 001°46'1018.8
2017-Aug-09 12:58N 51°03' E 001°32'9 6.4
2017-Aug-09 11:36N 51°07' E 001°20'0 1.2
2017-Aug-09 11:30N 51°07' E 001°20'815.1
2017-Aug-09 11:00N 51°05' E 001°31'917.4
2017-Aug-09 10:30N 50°59' E 001°42'611.4
2017-Aug-09 10:00N 50°58' E 001°51'0 0.0
2017-Aug-09 09:30N 50°58' E 001°51'0 0.0
2017-Aug-09 09:00N 50°58' E 001°51'510.0
2017-Aug-09 08:31N 50°58' E 001°43'816.7
2017-Aug-09 08:00N 51°02' E 001°32'916.9
2017-Aug-09 07:30N 51°07' E 001°21'0 0.3
2017-Aug-09 06:34N 51°07' E 001°20'0 0.1
2017-Aug-09 06:20N 51°07' E 001°20'3 9.9
2017-Aug-09 06:00N 51°07' E 001°25'917.7
2017-Aug-09 05:30N 51°02' E 001°37'917.0
2017-Aug-09 05:00N 50°58' E 001°49'1 2.5
2017-Aug-09 04:30N 50°58' E 001°51'0 0.0
2017-Aug-09 04:00N 50°58' E 001°51'2 3.9
2017-Aug-09 03:31N 50°58' E 001°48'816.2
2017-Aug-09 03:00N 51°01' E 001°36'816.2
2017-Aug-09 02:31N 51°06' E 001°26'4 6.7
2017-Aug-09 01:56N 51°07' E 001°20'0 0.0
2017-Aug-09 01:22N 51°07' E 001°20'3 8.0
2017-Aug-09 01:00N 51°07' E 001°25'714.7
2017-Aug-09 00:30N 51°04' E 001°36'816.5
2017-Aug-09 00:00N 50°58' E 001°45'4 7.9
2017-Aug-08 23:29N 50°58' E 001°51'0 0.0
2017-Aug-08 23:00N 50°58' E 001°51'5 9.3
2017-Aug-08 22:31N 50°58' E 001°44'917.6
2017-Aug-08 22:00N 51°01' E 001°31'917.1
2017-Aug-08 21:31N 51°07' E 001°21'1 0.8
2017-Aug-08 20:47N 51°07' E 001°20'2 8.7
2017-Aug-08 20:30N 51°07' E 001°24'815.1
2017-Aug-08 20:00N 51°02' E 001°34'713.2
2017-Aug-08 19:31N 50°59' E 001°42'510.9
2017-Aug-08 19:00N 50°58' E 001°51'0 0.0
2017-Aug-08 18:30N 50°58' E 001°51'4 7.5
2017-Aug-08 18:01N 50°58' E 001°45'815.9
2017-Aug-08 17:30N 51°01' E 001°33'816.2
2017-Aug-08 17:00N 51°07' E 001°24'3 2.3
2017-Aug-08 15:54N 51°07' E 001°20'614.8
2017-Aug-08 15:30N 51°06' E 001°29'917.5
2017-Aug-08 15:01N 51°01' E 001°40'714.3
2017-Aug-08 14:31N 50°58' E 001°51'0 0.4
2017-Aug-08 14:00N 50°58' E 001°51'1 2.6
2017-Aug-08 13:31N 50°58' E 001°49'918.3
2017-Aug-08 13:00N 51°01' E 001°35'918.4
2017-Aug-08 12:30N 51°06' E 001°23'2 3.1
2017-Aug-08 11:46N 51°07' E 001°20'1 4.6
2017-Aug-08 11:30N 51°07' E 001°22'816.7
2017-Aug-08 11:01N 51°03' E 001°33'817.0
2017-Aug-08 10:31N 50°58' E 001°45'  

Dump ship's entire track history